Time;durP1;ratioP1;P1;durP2;ratioP2;P2;SDS_P1;SDS_P2;PMS_P1;PMS_P2;Temp;Humidity;BMP_temperature;BMP_pressure;BME280_temperature;BME280_humidity;BME280_pressure;Samples;Min_cycle;Max_cycle;Signal;HPM_P1;HPM_P2
2022/10/05 00:02:20;;;;;;;8.18;7.30;;;15.30;88.70;;;;;;5079414;28;20067;-82
2022/10/05 00:04:54;;;;;;;9.18;6.90;;;15.30;88.70;;;;;;5112988;28;20075;-82
2022/10/05 00:07:22;;;;;;;10.77;6.88;;;15.30;88.40;;;;;;5096090;28;20031;-82
2022/10/05 00:09:56;;;;;;;9.48;6.70;;;15.30;88.30;;;;;;5112471;28;20040;-82
2022/10/05 00:12:23;;;;;;;12.05;6.70;;;15.30;88.30;;;;;;5095976;28;20031;-82
2022/10/05 00:14:52;;;;;;;9.48;6.85;;;15.30;88.30;;;;;;5111989;28;20035;-82
2022/10/05 00:17:26;;;;;;;9.18;6.22;;;15.30;88.20;;;;;;5112527;28;20126;-82
2022/10/05 00:19:52;;;;;;;9.55;6.80;;;15.20;88.30;;;;;;5095448;28;20475;-82
2022/10/05 00:22:20;;;;;;;12.70;6.82;;;15.20;88.40;;;;;;5112477;28;20044;-82
2022/10/05 00:24:49;;;;;;;10.65;5.80;;;15.20;88.40;;;;;;5095856;28;20478;-82
2022/10/05 00:27:19;;;;;;;6.53;5.57;;;15.20;88.30;;;;;;5095723;28;20377;-82
2022/10/05 00:29:46;;;;;;;8.75;5.32;;;15.20;88.10;;;;;;5112150;28;20126;-82
2022/10/05 00:32:12;;;;;;;7.72;5.47;;;15.30;87.90;;;;;;5112429;28;20487;-82
2022/10/05 00:34:38;;;;;;;6.60;5.55;;;15.30;87.90;;;;;;5078586;28;20067;-82
2022/10/05 00:37:05;;;;;;;7.32;5.28;;;15.30;88.00;;;;;;5095456;28;20077;-82
2022/10/05 00:39:32;;;;;;;7.15;5.93;;;15.30;87.70;;;;;;5095480;28;20031;-82
2022/10/05 00:41:57;;;;;;;5.90;4.68;;;15.30;87.80;;;;;;5112018;28;20056;-82
2022/10/05 00:44:45;;;;;;;7.07;4.50;;;15.30;87.90;;;;;;5112084;28;20044;-82
2022/10/05 00:47:34;;;;;;;8.18;5.32;;;15.30;87.80;;;;;;5112129;28;20040;-82
2022/10/05 00:50:30;;;;;;;5.38;4.25;;;15.20;87.90;;;;;;5112103;28;20036;-82
2022/10/05 00:53:09;;;;;;;6.35;4.30;;;15.20;87.80;;;;;;5112383;28;20044;-82
2022/10/05 00:56:11;;;;;;;7.05;3.97;;;15.20;87.60;;;;;;5112093;28;20035;-82
2022/10/05 00:59:07;;;;;;;6.32;4.55;;;15.20;87.70;;;;;;5112046;28;20035;-82
2022/10/05 01:01:46;;;;;;;6.85;5.15;;;15.20;87.70;;;;;;5112088;28;20035;-82
2022/10/05 01:04:48;;;;;;;7.82;4.45;;;15.20;87.60;;;;;;5112038;28;20036;-81
2022/10/05 01:07:42;;;;;;;8.25;4.88;;;15.20;87.70;;;;;;5094949;28;20050;-82
2022/10/05 01:10:22;;;;;;;6.55;4.70;;;15.20;87.90;;;;;;5094869;28;20039;-82
2022/10/05 01:13:22;;;;;;;6.35;4.82;;;15.10;88.20;;;;;;5094942;28;20536;-82
2022/10/05 01:16:03;;;;;;;6.15;4.75;;;15.10;88.00;;;;;;5111051;28;20043;-82
2022/10/05 01:18:45;;;;;;;6.63;4.78;;;15.10;88.40;;;;;;5111843;28;20046;-82
2022/10/05 01:21:21;;;;;;;8.05;4.85;;;15.10;88.60;;;;;;5111855;28;20035;-82
2022/10/05 01:24:25;;;;;;;7.80;4.95;;;15.00;88.70;;;;;;5094937;28;20046;-82
2022/10/05 01:27:10;;;;;;;8.02;5.28;;;15.00;88.90;;;;;;5115907;28;20042;-82
2022/10/05 01:30:11;;;;;;;7.93;5.38;;;15.00;89.00;;;;;;5115587;28;20039;-82
2022/10/05 01:32:43;;;;;;;8.77;6.20;;;15.10;89.10;;;;;;5110803;28;20385;-82
2022/10/05 01:35:23;;;;;;;7.22;5.93;;;15.10;89.10;;;;;;5115619;28;20554;-82
2022/10/05 01:38:01;;;;;;;11.75;7.25;;;15.10;89.10;;;;;;5098779;28;20129;-82
2022/10/05 01:40:33;;;;;;;8.13;6.93;;;15.10;88.90;;;;;;5098717;28;20091;-82
2022/10/05 01:43:08;;;;;;;10.15;6.90;;;15.10;88.90;;;;;;5115212;28;20070;-82
2022/10/05 01:45:48;;;;;;;7.68;6.35;;;15.00;89.40;;;;;;5115509;28;20057;-82
2022/10/05 01:48:32;;;;;;;9.95;7.10;;;15.00;89.10;;;;;;5098292;28;20035;-82
2022/10/05 01:51:10;;;;;;;9.77;7.55;;;15.10;89.50;;;;;;5115228;28;20044;-82
2022/10/05 01:53:56;;;;;;;11.52;7.18;;;15.10;89.40;;;;;;5115586;28;20036;-82
2022/10/05 01:56:42;;;;;;;9.60;6.78;;;15.00;89.70;;;;;;5115208;28;20032;-82
2022/10/05 01:59:33;;;;;;;10.07;7.93;;;15.10;89.50;;;;;;5098117;28;20052;-82
2022/10/05 02:02:03;;;;;;;9.80;6.90;;;15.10;89.60;;;;;;5098374;28;20040;-82
2022/10/05 02:04:52;;;;;;;13.95;7.80;;;15.10;89.70;;;;;;5115284;28;20066;-82
2022/10/05 02:07:28;;;;;;;10.02;7.07;;;15.10;89.70;;;;;;5115029;28;20074;-82
2022/10/05 02:09:59;;;;;;;9.27;7.32;;;15.10;89.50;;;;;;5114815;28;20035;-82
2022/10/05 02:12:29;;;;;;;9.02;7.20;;;15.10;89.40;;;;;;5097976;28;20039;-82
2022/10/05 02:15:02;;;;;;;9.23;6.82;;;15.10;89.30;;;;;;5114874;28;20043;-82
2022/10/05 02:17:57;;;;;;;12.70;7.28;;;15.20;89.10;;;;;;5114864;28;20031;-82
2022/10/05 02:20:27;;;;;;;8.40;6.55;;;15.20;89.10;;;;;;5078900;28;20047;-82
2022/10/05 02:22:59;;;;;;;9.20;7.30;;;15.20;88.90;;;;;;5097648;28;20046;-82
2022/10/05 02:25:36;;;;;;;8.65;6.43;;;15.20;89.10;;;;;;5097710;28;20031;-82
2022/10/05 02:28:12;;;;;;;7.97;6.07;;;15.10;89.10;;;;;;5114615;28;20047;-82
2022/10/05 02:30:52;;;;;;;7.05;6.13;;;15.20;88.90;;;;;;5097504;28;20082;-83
2022/10/05 02:33:27;;;;;;;10.35;6.05;;;15.20;88.90;;;;;;5114810;28;20123;-82
2022/10/05 02:35:53;;;;;;;7.97;5.80;;;15.20;88.90;;;;;;5097271;28;20040;-82
2022/10/05 02:38:49;;;;;;;9.00;6.10;;;15.10;88.90;;;;;;5080196;28;20054;-82
2022/10/05 02:41:30;;;;;;;7.18;5.45;;;15.20;89.10;;;;;;5100685;28;20130;-82
2022/10/05 02:44:02;;;;;;;9.38;5.90;;;15.20;88.80;;;;;;5114728;28;20232;-82
2022/10/05 02:46:31;;;;;;;5.82;4.43;;;15.20;88.70;;;;;;5114293;28;20044;-81
2022/10/05 02:49:25;;;;;;;6.68;4.18;;;15.20;88.40;;;;;;5114031;28;20043;-82
2022/10/05 02:52:03;;;;;;;11.13;4.32;;;15.20;88.20;;;;;;5105025;28;20083;-82
2022/10/05 02:55:01;;;;;;;7.05;4.13;;;15.20;87.90;;;;;;5114171;28;20039;-82
2022/10/05 02:57:45;;;;;;;4.70;2.97;;;15.20;88.00;;;;;;5058748;28;20047;-82
2022/10/05 03:00:20;;;;;;;6.30;3.50;;;15.30;87.60;;;;;;5113861;28;20097;-82
2022/10/05 03:03:10;;;;;;;14.88;4.63;;;15.30;87.30;;;;;;5114198;28;20112;-82
2022/10/05 03:05:36;;;;;;;6.18;3.35;;;15.20;87.20;;;;;;5114004;28;20039;-82
2022/10/05 03:08:38;;;;;;;5.65;2.75;;;15.30;87.20;;;;;;5097101;28;20113;-82
2022/10/05 03:11:24;;;;;;;5.88;3.17;;;15.30;87.20;;;;;;5114136;28;20062;-82
2022/10/05 03:14:35;;;;;;;5.97;3.40;;;15.20;87.00;;;;;;5096773;28;20075;-82
2022/10/05 03:17:17;;;;;;;4.82;3.33;;;15.20;87.10;;;;;;5113658;28;20044;-82
2022/10/05 03:20:06;;;;;;;6.60;3.55;;;15.20;87.10;;;;;;5096568;28;20035;-82
2022/10/05 03:22:52;;;;;;;6.72;3.05;;;15.20;87.00;;;;;;5113609;28;20054;-82
2022/10/05 03:25:42;;;;;;;4.07;2.90;;;15.20;87.00;;;;;;5096579;28;20114;-82
2022/10/05 03:28:41;;;;;;;3.40;2.72;;;15.10;86.90;;;;;;5113700;28;20047;-82
2022/10/05 03:31:48;;;;;;;6.03;3.67;;;15.20;87.00;;;;;;5113263;28;20047;-82
2022/10/05 03:34:32;;;;;;;6.25;3.05;;;15.10;87.00;;;;;;5112621;28;20054;-82
2022/10/05 03:37:01;;;;;;;;;;;15.20;86.60;;;;;;5113729;28;20036;-80
2022/10/05 03:39:39;;;;;;;4.90;2.78;;;15.20;86.50;;;;;;5096140;28;20434;-80
2022/10/05 03:42:35;;;;;;;4.68;2.60;;;15.20;86.50;;;;;;5113160;28;20060;-80
2022/10/05 03:45:42;;;;;;;4.35;2.25;;;15.20;86.20;;;;;;5113395;28;20575;-80
2022/10/05 03:48:13;;;;;;;3.90;2.13;;;15.20;86.10;;;;;;5111886;28;20090;-79
2022/10/05 03:50:45;;;;;;;3.38;2.20;;;15.20;86.00;;;;;;5113132;28;20108;-80
2022/10/05 03:53:28;;;;;;;3.60;2.20;;;15.20;85.70;;;;;;5096036;28;20057;-80
2022/10/05 03:56:15;;;;;;;4.20;2.65;;;15.20;85.60;;;;;;5113675;28;20357;-80
2022/10/05 03:58:49;;;;;;;5.10;2.40;;;15.10;85.70;;;;;;5112833;28;20035;-79
2022/10/05 04:01:20;;;;;;;6.15;2.65;;;15.20;85.80;;;;;;5112954;28;20118;-80
2022/10/05 04:03:50;;;;;;;5.05;2.50;;;15.20;85.80;;;;;;5096000;28;20548;-80
2022/10/05 04:06:32;;;;;;;4.00;2.53;;;15.20;85.50;;;;;;5095882;28;20058;-80
2022/10/05 04:09:15;;;;;;;4.45;2.60;;;15.10;85.70;;;;;;5095819;28;20036;-79
2022/10/05 04:11:53;;;;;;;4.53;2.40;;;15.10;85.70;;;;;;5112847;28;20036;-79
2022/10/05 04:14:27;;;;;;;5.15;2.35;;;15.20;85.80;;;;;;5112743;28;20079;-80
2022/10/05 04:17:01;;;;;;;5.07;2.97;;;15.20;85.50;;;;;;5112685;28;20093;-79
2022/10/05 04:19:56;;;;;;;6.28;2.75;;;15.20;85.50;;;;;;5113132;28;20388;-79
2022/10/05 04:22:39;;;;;;;5.60;2.60;;;15.10;85.80;;;;;;5095928;28;20043;-79
2022/10/05 04:25:21;;;;;;;5.75;3.28;;;15.20;85.80;;;;;;5112715;28;20510;-79
2022/10/05 04:27:59;;;;;;;5.45;3.25;;;15.20;85.70;;;;;;5113107;28;20043;-79
2022/10/05 04:30:25;;;;;;;3.75;3.13;;;15.10;86.00;;;;;;5095800;28;20046;-79
2022/10/05 04:32:56;;;;;;;6.70;3.53;;;15.10;86.10;;;;;;5095716;28;20462;-79
2022/10/05 04:35:40;;;;;;;6.20;4.20;;;15.10;86.10;;;;;;5112809;28;20383;-79
2022/10/05 04:38:20;;;;;;;5.05;3.75;;;15.10;86.30;;;;;;5113117;28;20039;-80
2022/10/05 04:40:58;;;;;;;5.25;4.18;;;15.20;86.10;;;;;;5113430;28;20046;-80
2022/10/05 04:43:50;;;;;;;6.85;4.25;;;15.10;86.30;;;;;;5112792;28;20135;-80
2022/10/05 04:46:28;;;;;;;6.72;4.18;;;15.10;86.20;;;;;;5074281;28;20044;-80
2022/10/05 04:49:12;;;;;;;6.10;4.47;;;15.10;86.50;;;;;;5096177;28;20093;-80
2022/10/05 04:51:52;;;;;;;5.93;4.82;;;15.10;86.40;;;;;;5113390;28;20455;-82
2022/10/05 04:54:53;;;;;;;6.85;4.00;;;15.10;86.80;;;;;;5112324;28;20120;-82
2022/10/05 04:57:27;;;;;;;7.05;3.95;;;15.10;86.50;;;;;;5095922;28;20040;-82
2022/10/05 05:00:04;;;;;;;6.45;3.85;;;15.00;86.70;;;;;;5114506;28;20126;-82
2022/10/05 05:02:36;;;;;;;6.13;4.60;;;15.00;86.70;;;;;;5099632;28;20088;-82
2022/10/05 05:05:13;;;;;;;6.95;4.65;;;15.00;87.00;;;;;;5116959;28;20505;-82
2022/10/05 05:08:09;;;;;;;6.47;4.78;;;15.00;87.10;;;;;;5100120;28;20043;-82
2022/10/05 05:10:42;;;;;;;6.55;5.28;;;15.00;86.90;;;;;;5099681;28;20043;-82
2022/10/05 05:13:32;;;;;;;8.52;5.20;;;15.00;86.90;;;;;;5099886;28;20055;-82
2022/10/05 05:16:08;;;;;;;8.02;5.03;;;15.00;86.80;;;;;;5117205;28;20050;-82
2022/10/05 05:18:37;;;;;;;6.60;5.22;;;15.00;86.80;;;;;;5098824;28;20122;-82
2022/10/05 05:21:31;;;;;;;7.43;6.20;;;15.10;86.70;;;;;;5116106;28;20043;-83
2022/10/05 05:24:20;;;;;;;8.95;6.18;;;15.00;86.80;;;;;;5116192;28;20475;-82
2022/10/05 05:27:01;;;;;;;8.98;5.95;;;15.00;86.70;;;;;;5099287;28;20036;-82
2022/10/05 05:29:55;;;;;;;9.23;6.40;;;15.00;86.70;;;;;;5118315;28;20097;-82
2022/10/05 05:32:33;;;;;;;;;;;15.00;86.80;;;;;;5110079;28;20048;-82
2022/10/05 05:35:07;;;;;;;10.70;6.63;;;15.00;86.80;;;;;;5118566;28;20282;-82
2022/10/05 05:37:58;;;;;;;11.07;6.57;;;15.00;86.70;;;;;;5117318;28;20042;-82
2022/10/05 05:41:07;;;;;;;9.57;6.95;;;15.00;86.60;;;;;;5101380;28;20039;-82
2022/10/05 05:43:50;;;;;;;7.43;6.18;;;15.00;86.60;;;;;;5099694;28;20441;-82
2022/10/05 05:46:32;;;;;;;10.15;6.65;;;15.00;86.40;;;;;;5099771;28;20036;-82
2022/10/05 05:49:04;;;;;;;11.63;6.28;;;15.00;86.60;;;;;;5116914;28;20051;-82
2022/10/05 05:51:35;;;;;;;10.43;6.28;;;15.00;86.40;;;;;;5117717;28;20050;-82
2022/10/05 05:54:22;;;;;;;9.23;6.93;;;15.00;86.70;;;;;;5100951;28;20082;-82
2022/10/05 05:57:15;;;;;;;8.68;5.72;;;15.00;86.60;;;;;;5101032;28;20035;-82
2022/10/05 06:00:00;;;;;;;10.35;7.15;;;15.00;86.70;;;;;;5117249;28;20066;-82
2022/10/05 06:02:46;;;;;;;7.75;5.38;;;15.00;86.90;;;;;;5100073;28;20071;-82
2022/10/05 06:05:33;;;;;;;7.70;6.57;;;15.00;86.70;;;;;;5117110;28;20361;-82
2022/10/05 06:08:07;;;;;;;10.43;6.05;;;15.00;86.60;;;;;;5119510;28;20437;-82
2022/10/05 06:10:55;;;;;;;8.32;5.70;;;15.00;87.00;;;;;;5116945;28;20032;-82
2022/10/05 06:13:31;;;;;;;9.48;6.18;;;15.00;87.00;;;;;;5104583;28;20113;-80
2022/10/05 06:15:57;;;;;;;9.77;6.05;;;15.00;87.10;;;;;;5120128;28;20050;-82
2022/10/05 06:18:23;;;;;;;7.53;5.68;;;14.90;87.20;;;;;;5116171;28;20043;-81
2022/10/05 06:21:01;;;;;;;9.40;6.30;;;14.90;87.10;;;;;;5101714;28;20059;-81
2022/10/05 06:23:32;;;;;;;7.60;5.10;;;15.00;87.00;;;;;;5116447;28;20051;-81
2022/10/05 06:26:03;;;;;;;7.72;6.10;;;14.90;87.00;;;;;;5098792;28;20047;-81
2022/10/05 06:28:29;;;;;;;9.20;5.70;;;15.00;86.90;;;;;;5115990;28;20039;-81
2022/10/05 06:31:21;;;;;;;12.45;6.57;;;15.00;86.70;;;;;;5082975;28;20043;-81
2022/10/05 06:33:50;;;;;;;10.02;5.47;;;15.00;86.80;;;;;;5104163;28;20063;-82
2022/10/05 06:36:26;;;;;;;7.13;5.32;;;15.00;86.60;;;;;;5114501;28;20043;-80
2022/10/05 06:39:22;;;;;;;7.30;5.35;;;15.00;86.60;;;;;;5114516;28;20047;-82
2022/10/05 06:42:20;;;;;;;9.40;5.53;;;15.00;86.50;;;;;;5114347;28;20055;-81
2022/10/05 06:45:19;;;;;;;6.43;4.55;;;15.00;86.60;;;;;;5112785;28;20043;-82
2022/10/05 06:47:59;;;;;;;7.38;4.78;;;15.00;86.40;;;;;;5104498;28;20127;-80
2022/10/05 06:50:35;;;;;;;6.38;4.72;;;15.00;86.40;;;;;;5106625;28;20043;-82
2022/10/05 06:53:10;;;;;;;7.47;4.65;;;15.00;86.60;;;;;;5107855;28;20088;-82
2022/10/05 06:55:52;;;;;;;6.25;4.28;;;15.10;86.10;;;;;;5092114;27;20047;-82
2022/10/05 06:58:56;;;;;;;6.32;4.75;;;15.00;86.20;;;;;;5109499;28;20616;-81
2022/10/05 07:01:27;;;;;;;5.60;4.77;;;15.00;86.40;;;;;;5031067;28;20183;-82
2022/10/05 07:03:56;;;;;;;7.70;4.40;;;15.00;86.50;;;;;;5030374;28;20037;-82
2022/10/05 07:06:27;;;;;;;4.00;3.30;;;15.00;86.40;;;;;;5051027;28;20042;-82
2022/10/05 07:09:35;;;;;;;6.25;3.67;;;15.10;86.30;;;;;;5089024;28;20047;-82
2022/10/05 07:12:09;;;;;;;5.72;3.70;;;15.10;86.30;;;;;;5090134;28;20149;-82
2022/10/05 07:14:45;;;;;;;4.38;3.45;;;15.00;86.10;;;;;;5106633;28;20062;-81
2022/10/05 07:17:41;;;;;;;4.78;3.33;;;15.10;85.90;;;;;;5106505;28;20048;-81
2022/10/05 07:20:12;;;;;;;4.88;3.42;;;15.10;85.90;;;;;;5107922;28;20472;-82
2022/10/05 07:23:03;;;;;;;7.38;3.33;;;15.20;85.60;;;;;;5107530;28;20079;-81
2022/10/05 07:25:39;;;;;;;3.67;3.25;;;15.20;85.60;;;;;;5089483;27;20039;-82
2022/10/05 07:28:15;;;;;;;3.03;2.72;;;15.30;85.60;;;;;;5090725;28;20058;-82
2022/10/05 07:31:05;;;;;;;5.65;2.88;;;15.30;85.40;;;;;;5108052;28;20047;-81
2022/10/05 07:33:40;;;;;;;5.32;2.33;;;15.30;84.80;;;;;;5089775;28;20540;-81
2022/10/05 07:38:59;;;;;;;2.33;1.80;;;15.40;84.70;;;;;;5104706;28;20075;-81
2022/10/05 07:41:42;;;;;;;3.03;1.80;;;15.40;84.60;;;;;;5105404;28;20035;-81
2022/10/05 07:44:15;;;;;;;2.38;1.90;;;15.50;84.20;;;;;;5106739;28;20084;-81
2022/10/05 07:46:49;;;;;;;2.72;1.50;;;15.40;84.30;;;;;;5088015;28;20044;-81
2022/10/05 07:49:24;;;;;;;4.22;1.63;;;15.40;83.70;;;;;;5089250;28;20047;-81
2022/10/05 07:51:54;;;;;;;1.75;1.30;;;15.40;83.90;;;;;;5089654;28;20047;-81
2022/10/05 07:54:33;;;;;;;2.78;1.75;;;15.40;83.40;;;;;;5103130;28;20046;-82
2022/10/05 07:57:26;;;;;;;2.03;1.33;;;15.50;83.30;;;;;;5085726;28;20931;-81
2022/10/05 07:59:56;;;;;;;2.72;1.48;;;15.50;83.30;;;;;;5085897;28;20593;-83
2022/10/05 08:02:27;;;;;;;2.67;1.23;;;15.50;83.30;;;;;;5100662;28;20067;-82
2022/10/05 08:05:15;;;;;;;4.35;1.30;;;15.50;83.10;;;;;;5100456;28;20074;-83
2022/10/05 08:07:41;;;;;;;1.90;1.15;;;15.50;83.20;;;;;;5103210;28;20051;-83
2022/10/05 08:10:30;;;;;;;2.78;1.10;;;15.50;83.00;;;;;;5085043;28;20082;-84
2022/10/05 08:13:08;;;;;;;3.00;1.25;;;15.60;82.60;;;;;;5084163;28;20198;-83
2022/10/05 08:15:41;;;;;;;2.92;1.30;;;15.60;82.30;;;;;;5087286;27;20899;-83
2022/10/05 08:18:39;;;;;;;3.35;1.35;;;15.60;82.40;;;;;;5084974;28;20044;-85
2022/10/05 08:21:10;;;;;;;1.92;1.25;;;15.70;82.10;;;;;;5089775;28;20044;-82
2022/10/05 08:23:53;;;;;;;2.63;1.48;;;15.70;82.20;;;;;;5089742;28;20042;-84
2022/10/05 08:26:43;;;;;;;1.60;0.98;;;15.70;81.80;;;;;;5106414;27;20051;-82
2022/10/05 08:29:18;;;;;;;2.97;1.50;;;15.70;82.20;;;;;;5105798;28;20549;-81
2022/10/05 08:32:18;;;;;;;2.35;0.90;;;15.70;82.20;;;;;;5088090;28;20048;-79
2022/10/05 08:35:20;;;;;;;3.38;1.02;;;15.80;82.40;;;;;;5104231;28;20073;-79
2022/10/05 08:37:47;;;;;;;3.92;1.38;;;15.70;82.30;;;;;;5087181;28;20611;-79
2022/10/05 08:40:32;;;;;;;2.78;1.70;;;15.80;82.30;;;;;;5088869;28;20048;-80
2022/10/05 08:43:16;;;;;;;2.38;1.40;;;15.90;82.40;;;;;;5103373;28;20059;-80
2022/10/05 08:45:54;;;;;;;3.53;1.48;;;15.90;82.40;;;;;;5103486;28;20138;-80
2022/10/05 08:48:43;;;;;;;3.60;1.75;;;15.90;81.90;;;;;;5104612;28;20046;-80
2022/10/05 08:51:20;;;;;;;2.47;1.80;;;16.00;82.00;;;;;;5048981;28;20066;-79
2022/10/05 08:54:15;;;;;;;3.97;1.55;;;16.00;82.00;;;;;;5105580;28;20039;-80
2022/10/05 08:56:55;;;;;;;;;;;16.10;81.70;;;;;;5104738;28;20039;-79
2022/10/05 08:59:26;;;;;;;3.80;1.70;;;16.10;81.80;;;;;;5104185;28;19958;-81
2022/10/05 09:02:14;;;;;;;3.85;2.03;;;16.20;81.70;;;;;;5104228;28;20789;-79
2022/10/05 09:05:14;;;;;;;3.90;1.55;;;16.20;81.10;;;;;;5103806;28;20051;-80
2022/10/05 09:08:14;;;;;;;2.88;1.88;;;16.20;81.60;;;;;;5104795;28;20047;-80
2022/10/05 09:11:02;;;;;;;2.70;1.60;;;16.30;81.10;;;;;;5104884;28;20108;-79
2022/10/05 09:13:51;;;;;;;4.05;1.80;;;16.40;80.50;;;;;;5090845;28;20054;-79
2022/10/05 09:16:46;;;;;;;3.03;2.10;;;16.50;79.80;;;;;;5103733;28;20035;-79
2022/10/05 09:19:11;;;;;;;;;;;16.50;80.10;;;;;;5067018;28;20154;-77
2022/10/05 09:22:03;;;;;;;6.20;2.20;;;16.40;80.40;;;;;;5087909;28;20002;-79
2022/10/05 09:24:43;;;;;;;3.20;2.10;;;16.60;80.10;;;;;;5088366;28;20094;-79
2022/10/05 09:27:16;;;;;;;3.60;1.92;;;16.70;79.90;;;;;;5103679;28;20092;-79
2022/10/05 09:30:00;;;;;;;3.47;2.10;;;16.80;79.40;;;;;;5104264;28;20048;-77
2022/10/05 09:33:02;;;;;;;3.25;1.88;;;16.90;79.20;;;;;;5111993;28;20043;-75
2022/10/05 09:35:40;;;;;;;3.22;1.95;;;17.00;78.90;;;;;;5105890;28;20046;-78
2022/10/05 09:38:19;;;;;;;4.38;2.38;;;17.00;79.20;;;;;;5104269;28;20052;-78
2022/10/05 09:41:11;;;;;;;4.38;2.40;;;17.00;79.30;;;;;;5104063;28;20047;-78
2022/10/05 09:44:05;;;;;;;3.13;1.98;;;17.10;78.80;;;;;;5099414;28;20471;-76
2022/10/05 09:47:01;;;;;;;2.70;1.67;;;17.20;78.30;;;;;;5103320;28;20495;-78
2022/10/05 09:49:54;;;;;;;3.35;2.10;;;17.30;77.80;;;;;;5107781;28;20048;-80
2022/10/05 09:52:45;;;;;;;3.45;2.35;;;17.10;78.40;;;;;;5108888;28;20287;-78
2022/10/05 09:55:31;;;;;;;2.88;1.90;;;17.20;78.40;;;;;;5106624;28;20055;-78
2022/10/05 09:58:32;;;;;;;4.68;2.03;;;17.20;78.60;;;;;;5108325;27;20058;-77
2022/10/05 10:01:05;;;;;;;2.72;2.03;;;17.00;79.10;;;;;;5089885;28;20154;-78
2022/10/05 10:03:58;;;;;;;3.03;2.10;;;17.00;79.30;;;;;;5106603;28;20050;-77
2022/10/05 10:06:52;;;;;;;6.40;2.72;;;16.90;79.40;;;;;;5088159;28;20047;-76
2022/10/05 10:09:31;;;;;;;4.68;2.72;;;16.80;79.00;;;;;;5107506;28;20051;-78
2022/10/05 10:12:22;;;;;;;3.33;2.80;;;16.70;79.50;;;;;;5090403;28;20066;-79
2022/10/05 10:15:15;;;;;;;4.63;2.70;;;16.80;79.50;;;;;;5106335;28;20146;-77
2022/10/05 10:17:43;;;;;;;2.92;2.30;;;16.60;80.10;;;;;;5106600;28;20048;-77
2022/10/05 10:20:34;;;;;;;5.18;2.53;;;16.60;80.40;;;;;;5107304;28;20070;-75
2022/10/05 10:23:06;;;;;;;3.70;2.78;;;16.60;80.30;;;;;;5105753;28;20467;-75
2022/10/05 10:25:37;;;;;;;6.18;2.83;;;16.60;80.60;;;;;;5088757;27;20399;-76
2022/10/05 10:28:31;;;;;;;4.05;2.78;;;16.60;80.70;;;;;;5105664;28;20522;-76
2022/10/05 10:31:05;;;;;;;4.07;2.50;;;16.60;80.90;;;;;;5106510;28;20047;-77
2022/10/05 10:34:13;;;;;;;5.60;3.30;;;16.50;80.80;;;;;;5107093;28;20043;-75
2022/10/05 10:37:15;;;;;;;7.60;3.22;;;16.50;81.20;;;;;;5105893;27;20072;-77
2022/10/05 10:39:57;;;;;;;2.90;2.35;;;16.50;81.00;;;;;;5089993;28;20051;-77
2022/10/05 10:42:58;;;;;;;5.60;2.92;;;16.50;81.30;;;;;;5106768;28;20055;-76
2022/10/05 10:45:45;;;;;;;3.47;2.92;;;16.40;81.20;;;;;;5105933;28;20043;-74
2022/10/05 10:48:29;;;;;;;4.20;2.60;;;16.50;81.20;;;;;;5106938;28;20052;-77
2022/10/05 10:50:55;;;;;;;8.35;3.38;;;16.40;81.40;;;;;;5106979;28;20127;-75
2022/10/05 10:53:52;;;;;;;3.65;3.30;;;16.40;81.40;;;;;;5107170;28;20126;-77
2022/10/05 10:56:42;;;;;;;3.65;2.75;;;16.40;81.70;;;;;;5105060;27;20044;-76
2022/10/05 10:59:45;;;;;;;4.38;3.25;;;16.50;81.60;;;;;;5106479;28;20039;-79
2022/10/05 11:02:35;;;;;;;3.97;3.10;;;16.50;80.80;;;;;;5094381;28;20055;-77
2022/10/05 11:05:19;;;;;;;5.57;3.47;;;16.40;80.80;;;;;;5107864;28;20047;-78
2022/10/05 11:08:03;;;;;;;5.95;3.40;;;16.30;81.20;;;;;;5107718;28;20150;-78
2022/10/05 11:10:48;;;;;;;5.65;4.25;;;16.30;81.40;;;;;;5105437;28;20047;-78
2022/10/05 11:13:32;;;;;;;5.68;3.28;;;16.20;82.20;;;;;;5107079;28;20310;-79
2022/10/05 11:16:26;;;;;;;4.75;3.58;;;16.30;81.90;;;;;;5087197;28;20043;-80
2022/10/05 11:19:23;;;;;;;6.85;3.97;;;16.30;81.80;;;;;;5090622;28;20035;-80
2022/10/05 11:22:04;;;;;;;4.35;3.15;;;16.30;81.90;;;;;;5105762;28;20162;-78
2022/10/05 11:24:53;;;;;;;3.85;3.10;;;16.30;81.60;;;;;;5105637;28;20039;-78
2022/10/05 11:27:21;;;;;;;5.57;3.30;;;16.30;81.90;;;;;;5106440;27;20475;-78
2022/10/05 11:29:58;;;;;;;4.47;2.85;;;16.20;81.70;;;;;;5105453;28;20051;-79
2022/10/05 11:33:10;;;;;;;4.07;3.20;;;16.20;82.10;;;;;;5105640;28;20043;-78
2022/10/05 11:35:45;;;;;;;3.85;2.72;;;16.10;82.20;;;;;;5087796;28;20472;-77
2022/10/05 11:38:29;;;;;;;4.20;2.78;;;16.20;82.20;;;;;;5088627;28;20039;-77
2022/10/05 11:41:01;;;;;;;5.30;2.83;;;16.10;82.10;;;;;;5104598;28;20487;-76
2022/10/05 11:43:51;;;;;;;5.65;3.25;;;16.20;82.30;;;;;;5089064;28;20087;-78
2022/10/05 11:46:29;;;;;;;3.72;2.30;;;16.20;82.40;;;;;;5103827;28;20051;-77
2022/10/05 11:49:39;;;;;;;4.10;2.50;;;16.20;82.20;;;;;;5105755;28;20495;-77
2022/10/05 11:52:29;;;;;;;5.45;2.53;;;16.20;81.80;;;;;;5105214;28;20879;-77
2022/10/05 11:55:20;;;;;;;2.40;2.20;;;16.20;81.90;;;;;;5085511;28;20048;-77
2022/10/05 11:57:48;;;;;;;3.70;2.53;;;16.20;81.80;;;;;;5073463;28;20051;-78
2022/10/05 12:00:24;;;;;;;3.88;2.40;;;16.20;81.90;;;;;;5105971;28;20052;-76
2022/10/05 12:03:02;;;;;;;6.05;2.45;;;16.20;81.50;;;;;;5105682;28;21472;-79
2022/10/05 12:05:49;;;;;;;2.75;2.50;;;16.10;81.50;;;;;;5087192;28;20035;-78
2022/10/05 12:08:27;;;;;;;4.63;2.33;;;16.20;81.70;;;;;;5105574;28;20066;-76
2022/10/05 12:10:59;;;;;;;4.13;2.58;;;16.20;81.60;;;;;;5104712;28;20114;-76
2022/10/05 12:13:45;;;;;;;3.90;2.15;;;16.20;81.40;;;;;;5105952;28;20036;-76
2022/10/05 12:16:22;;;;;;;3.38;2.67;;;16.30;81.20;;;;;;5086669;28;20058;-77
2022/10/05 12:18:59;;;;;;;4.18;2.30;;;16.20;81.30;;;;;;5104491;28;20499;-78
2022/10/05 12:21:35;;;;;;;7.78;3.50;;;16.20;81.40;;;;;;5103687;28;20043;-77
2022/10/05 12:24:22;;;;;;;3.85;2.42;;;16.20;81.20;;;;;;5103534;28;20376;-78
2022/10/05 12:27:03;;;;;;;7.00;2.90;;;16.30;81.10;;;;;;5102909;28;20050;-75
2022/10/05 12:29:38;;;;;;;2.95;2.40;;;16.20;80.90;;;;;;5086803;28;20487;-76
2022/10/05 12:32:17;;;;;;;2.75;2.25;;;16.30;80.90;;;;;;5103688;28;20031;-77
2022/10/05 12:35:03;;;;;;;3.28;2.10;;;16.30;80.60;;;;;;5103122;28;20044;-79
2022/10/05 12:37:57;;;;;;;4.30;2.50;;;16.30;80.60;;;;;;5104918;27;20387;-78
2022/10/05 12:40:30;;;;;;;2.72;2.15;;;16.30;80.20;;;;;;5105410;28;20470;-79
2022/10/05 12:43:03;;;;;;;5.65;2.47;;;16.30;80.60;;;;;;5104449;28;20051;-78
2022/10/05 12:45:56;;;;;;;5.47;2.33;;;16.40;80.70;;;;;;5104080;28;20162;-79
2022/10/05 12:48:38;;;;;;;4.82;2.60;;;16.40;80.70;;;;;;5087637;28;20055;-78
2022/10/05 12:51:30;;;;;;;6.15;2.28;;;16.40;80.70;;;;;;5104130;28;20077;-77
2022/10/05 12:54:05;;;;;;;4.57;2.47;;;16.40;80.40;;;;;;5104948;28;20547;-75
2022/10/05 12:56:53;;;;;;;4.68;2.67;;;16.40;80.30;;;;;;5101358;28;20051;-75
2022/10/05 12:59:47;;;;;;;5.05;3.50;;;16.50;80.60;;;;;;5105347;28;20090;-76
2022/10/05 13:02:31;;;;;;;4.15;3.65;;;16.40;80.10;;;;;;5097774;28;20051;-75
2022/10/05 13:05:13;;;;;;;6.78;3.70;;;16.50;80.50;;;;;;5103197;28;20401;-74
2022/10/05 13:08:06;;;;;;;4.30;3.90;;;16.50;80.70;;;;;;5088386;28;20047;-77
2022/10/05 13:10:56;;;;;;;6.43;3.92;;;16.50;80.50;;;;;;5084810;28;20043;-77
2022/10/05 13:13:40;;;;;;;4.05;3.65;;;16.60;80.50;;;;;;5084078;28;20040;-79
2022/10/05 13:16:28;;;;;;;6.63;4.22;;;16.60;80.40;;;;;;5097135;28;20047;-75
2022/10/05 13:19:32;;;;;;;5.40;3.83;;;16.70;80.20;;;;;;5098674;28;20536;-76
2022/10/05 13:22:14;;;;;;;7.00;4.13;;;16.80;80.20;;;;;;5102568;28;20036;-78
2022/10/05 13:25:03;;;;;;;4.68;3.65;;;17.00;79.20;;;;;;5102214;28;20543;-79
2022/10/05 13:27:35;;;;;;;5.95;3.65;;;17.20;78.50;;;;;;5104042;27;20050;-78
2022/10/05 13:30:29;;;;;;;3.80;3.40;;;17.50;77.90;;;;;;5102413;28;20069;-77
2022/10/05 13:33:22;;;;;;;4.65;3.80;;;17.80;77.70;;;;;;5091355;28;20122;-77
2022/10/05 13:35:59;;;;;;;5.10;3.60;;;18.00;76.20;;;;;;5106619;28;20051;-77
2022/10/05 13:38:48;;;;;;;9.70;3.53;;;18.20;75.60;;;;;;5107960;28;20483;-79
2022/10/05 13:41:39;;;;;;;4.95;3.40;;;18.40;74.90;;;;;;5108348;28;20066;-77
2022/10/05 13:44:39;;;;;;;6.80;3.45;;;18.50;74.20;;;;;;5107107;28;20501;-76
2022/10/05 13:47:16;;;;;;;5.40;3.78;;;18.30;73.40;;;;;;5107054;27;20046;-77
2022/10/05 13:50:13;;;;;;;5.38;3.70;;;18.20;74.80;;;;;;5114572;28;20085;-76
2022/10/05 13:53:24;;;;;;;4.43;3.70;;;18.00;75.60;;;;;;5098294;28;20036;-78
2022/10/05 13:56:29;;;;;;;6.22;3.47;;;17.70;76.00;;;;;;5083052;28;20050;-77
2022/10/05 13:59:10;;;;;;;5.63;3.60;;;17.50;76.80;;;;;;5115087;28;20046;-79
2022/10/05 14:02:00;;;;;;;6.55;3.00;;;17.40;77.50;;;;;;5098510;28;20035;-76
2022/10/05 14:04:49;;;;;;;6.47;3.67;;;17.20;77.80;;;;;;5115333;28;20088;-77
2022/10/05 14:07:47;;;;;;;7.03;3.42;;;17.20;78.20;;;;;;5115610;28;20039;-77
2022/10/05 14:10:27;;;;;;;7.20;4.05;;;17.00;78.40;;;;;;5100517;28;20140;-73
2022/10/05 14:12:53;;;;;;;6.28;4.50;;;17.00;78.70;;;;;;5127733;28;20122;-76